sensor_id;sensor_type;location;lat;lon;timestamp;temperature;humidity
70368;DHT22;57789;53.868;10.728;2022-12-28T00:00:33;4.60;99.90
70368;DHT22;57789;53.868;10.728;2022-12-28T00:03:04;4.70;99.90
70368;DHT22;57789;53.868;10.728;2022-12-28T00:05:34;4.70;99.90
70368;DHT22;57789;53.868;10.728;2022-12-28T00:08:00;4.70;99.90
70368;DHT22;57789;53.868;10.728;2022-12-28T00:10:26;4.80;99.90
70368;DHT22;57789;53.868;10.728;2022-12-28T00:12:51;4.80;99.90
70368;DHT22;57789;53.868;10.728;2022-12-28T00:15:18;4.80;99.90
70368;DHT22;57789;53.868;10.728;2022-12-28T00:17:45;4.90;99.90
70368;DHT22;57789;53.868;10.728;2022-12-28T00:20:11;4.90;99.90
70368;DHT22;57789;53.868;10.728;2022-12-28T00:22:36;4.90;99.90
70368;DHT22;57789;53.868;10.728;2022-12-28T00:25:02;4.90;99.90
70368;DHT22;57789;53.868;10.728;2022-12-28T00:27:28;4.90;99.90
70368;DHT22;57789;53.868;10.728;2022-12-28T00:29:54;4.90;99.90
70368;DHT22;57789;53.868;10.728;2022-12-28T00:32:20;4.90;99.90
70368;DHT22;57789;53.868;10.728;2022-12-28T00:34:46;4.90;99.90
70368;DHT22;57789;53.868;10.728;2022-12-28T00:37:11;4.90;99.90
70368;DHT22;57789;53.868;10.728;2022-12-28T00:39:37;4.90;99.90
70368;DHT22;57789;53.868;10.728;2022-12-28T00:42:03;4.90;99.90
70368;DHT22;57789;53.868;10.728;2022-12-28T00:44:29;4.90;99.90
70368;DHT22;57789;53.868;10.728;2022-12-28T00:46:55;4.90;99.90
70368;DHT22;57789;53.868;10.728;2022-12-28T00:49:21;5.00;99.90
70368;DHT22;57789;53.868;10.728;2022-12-28T00:51:48;4.90;99.90
70368;DHT22;57789;53.868;10.728;2022-12-28T00:54:14;4.90;99.90
70368;DHT22;57789;53.868;10.728;2022-12-28T00:56:40;5.00;99.90
70368;DHT22;57789;53.868;10.728;2022-12-28T00:59:10;5.00;99.90
70368;DHT22;57789;53.868;10.728;2022-12-28T01:01:36;5.00;99.90
70368;DHT22;57789;53.868;10.728;2022-12-28T01:04:03;5.00;99.90
70368;DHT22;57789;53.868;10.728;2022-12-28T01:06:28;5.00;99.90
70368;DHT22;57789;53.868;10.728;2022-12-28T01:08:54;5.00;99.90
70368;DHT22;57789;53.868;10.728;2022-12-28T01:11:25;5.10;99.90
70368;DHT22;57789;53.868;10.728;2022-12-28T01:13:53;5.10;99.90
70368;DHT22;57789;53.868;10.728;2022-12-28T01:16:22;5.10;99.90
70368;DHT22;57789;53.868;10.728;2022-12-28T01:18:52;5.10;99.90
70368;DHT22;57789;53.868;10.728;2022-12-28T01:21:20;5.10;99.90
70368;DHT22;57789;53.868;10.728;2022-12-28T01:23:47;5.10;99.90
70368;DHT22;57789;53.868;10.728;2022-12-28T01:26:14;5.10;99.90
70368;DHT22;57789;53.868;10.728;2022-12-28T01:28:40;5.10;99.90
70368;DHT22;57789;53.868;10.728;2022-12-28T01:31:09;5.10;99.90
70368;DHT22;57789;53.868;10.728;2022-12-28T01:33:35;5.10;99.90
70368;DHT22;57789;53.868;10.728;2022-12-28T01:36:12;5.20;99.90
70368;DHT22;57789;53.868;10.728;2022-12-28T01:39:16;5.10;99.90
70368;DHT22;57789;53.868;10.728;2022-12-28T01:42:08;5.20;99.90
70368;DHT22;57789;53.868;10.728;2022-12-28T01:44:41;5.20;99.90
70368;DHT22;57789;53.868;10.728;2022-12-28T01:47:11;5.20;99.90
70368;DHT22;57789;53.868;10.728;2022-12-28T01:57:26;5.20;99.90
70368;DHT22;57789;53.868;10.728;2022-12-28T02:00:05;5.20;99.90
70368;DHT22;57789;53.868;10.728;2022-12-28T02:02:32;5.20;99.90
70368;DHT22;57789;53.868;10.728;2022-12-28T02:04:58;5.20;99.90
70368;DHT22;57789;53.868;10.728;2022-12-28T02:07:51;5.20;99.90
70368;DHT22;57789;53.868;10.728;2022-12-28T02:10:18;5.30;99.90
70368;DHT22;57789;53.868;10.728;2022-12-28T02:12:45;5.30;99.90
70368;DHT22;57789;53.868;10.728;2022-12-28T02:15:10;5.30;99.90
70368;DHT22;57789;53.868;10.728;2022-12-28T02:17:36;5.30;99.90
70368;DHT22;57789;53.868;10.728;2022-12-28T02:20:03;5.30;99.90
70368;DHT22;57789;53.868;10.728;2022-12-28T02:31:17;5.40;99.90
70368;DHT22;57789;53.868;10.728;2022-12-28T02:34:22;5.40;99.90
70368;DHT22;57789;53.868;10.728;2022-12-28T02:36:45;5.30;99.90
70368;DHT22;57789;53.868;10.728;2022-12-28T02:39:18;5.40;99.90
70368;DHT22;57789;53.868;10.728;2022-12-28T02:41:47;5.40;99.90
70368;DHT22;57789;53.868;10.728;2022-12-28T02:44:13;5.40;99.90
70368;DHT22;57789;53.868;10.728;2022-12-28T02:46:59;5.50;99.90
70368;DHT22;57789;53.868;10.728;2022-12-28T02:49:44;5.50;99.90
70368;DHT22;57789;53.868;10.728;2022-12-28T02:55:38;5.50;99.90
70368;DHT22;57789;53.868;10.728;2022-12-28T03:01:51;5.50;99.90
70368;DHT22;57789;53.868;10.728;2022-12-28T03:07:29;5.40;99.90
70368;DHT22;57789;53.868;10.728;2022-12-28T03:10:31;5.30;99.90
70368;DHT22;57789;53.868;10.728;2022-12-28T03:13:25;5.30;99.90
70368;DHT22;57789;53.868;10.728;2022-12-28T03:16:19;5.20;99.90
70368;DHT22;57789;53.868;10.728;2022-12-28T03:18:52;5.10;99.90
70368;DHT22;57789;53.868;10.728;2022-12-28T03:21:40;5.10;99.90
70368;DHT22;57789;53.868;10.728;2022-12-28T03:24:28;5.10;99.90
70368;DHT22;57789;53.868;10.728;2022-12-28T03:27:14;5.10;99.90
70368;DHT22;57789;53.868;10.728;2022-12-28T03:30:07;5.10;99.90
70368;DHT22;57789;53.868;10.728;2022-12-28T03:32:53;5.10;99.90
70368;DHT22;57789;53.868;10.728;2022-12-28T03:35:26;5.10;99.90
70368;DHT22;57789;53.868;10.728;2022-12-28T03:38:01;5.10;99.90
70368;DHT22;57789;53.868;10.728;2022-12-28T03:40:52;5.10;99.90
70368;DHT22;57789;53.868;10.728;2022-12-28T03:43:32;5.00;99.90
70368;DHT22;57789;53.868;10.728;2022-12-28T03:48:46;4.90;99.90
70368;DHT22;57789;53.868;10.728;2022-12-28T03:51:15;4.90;99.90
70368;DHT22;57789;53.868;10.728;2022-12-28T03:53:43;4.90;99.90
70368;DHT22;57789;53.868;10.728;2022-12-28T03:56:15;4.80;99.90
70368;DHT22;57789;53.868;10.728;2022-12-28T03:58:41;4.80;99.90
70368;DHT22;57789;53.868;10.728;2022-12-28T04:01:07;4.80;99.90
70368;DHT22;57789;53.868;10.728;2022-12-28T04:03:33;4.80;99.90
70368;DHT22;57789;53.868;10.728;2022-12-28T04:05:59;4.80;99.90
70368;DHT22;57789;53.868;10.728;2022-12-28T04:08:25;4.80;99.90
70368;DHT22;57789;53.868;10.728;2022-12-28T04:10:51;4.70;99.90
70368;DHT22;57789;53.868;10.728;2022-12-28T04:13:16;4.80;99.90
70368;DHT22;57789;53.868;10.728;2022-12-28T04:15:42;4.70;99.90
70368;DHT22;57789;53.868;10.728;2022-12-28T04:18:08;4.80;99.90
70368;DHT22;57789;53.868;10.728;2022-12-28T04:20:33;4.70;99.90
70368;DHT22;57789;53.868;10.728;2022-12-28T04:22:59;4.70;99.90
70368;DHT22;57789;53.868;10.728;2022-12-28T04:25:25;4.60;99.90
70368;DHT22;57789;53.868;10.728;2022-12-28T04:27:51;4.60;99.90
70368;DHT22;57789;53.868;10.728;2022-12-28T04:30:17;4.60;99.90
70368;DHT22;57789;53.868;10.728;2022-12-28T04:32:42;4.50;99.90
70368;DHT22;57789;53.868;10.728;2022-12-28T04:35:10;4.50;99.90
70368;DHT22;57789;53.868;10.728;2022-12-28T04:37:36;4.50;99.90
70368;DHT22;57789;53.868;10.728;2022-12-28T04:40:03;4.50;99.90
70368;DHT22;57789;53.868;10.728;2022-12-28T04:42:29;4.50;99.90
70368;DHT22;57789;53.868;10.728;2022-12-28T04:44:55;4.50;99.90
70368;DHT22;57789;53.868;10.728;2022-12-28T04:47:20;4.50;99.90
70368;DHT22;57789;53.868;10.728;2022-12-28T04:49:46;4.40;99.90
70368;DHT22;57789;53.868;10.728;2022-12-28T04:52:12;4.50;99.90
70368;DHT22;57789;53.868;10.728;2022-12-28T04:54:38;4.40;99.90
70368;DHT22;57789;53.868;10.728;2022-12-28T04:57:03;4.40;99.90
70368;DHT22;57789;53.868;10.728;2022-12-28T04:59:29;4.40;99.90
70368;DHT22;57789;53.868;10.728;2022-12-28T05:01:54;4.40;99.90
70368;DHT22;57789;53.868;10.728;2022-12-28T05:04:20;4.40;99.90
70368;DHT22;57789;53.868;10.728;2022-12-28T05:06:46;4.40;99.90
70368;DHT22;57789;53.868;10.728;2022-12-28T05:09:12;4.40;99.90
70368;DHT22;57789;53.868;10.728;2022-12-28T05:11:37;4.40;99.90
70368;DHT22;57789;53.868;10.728;2022-12-28T05:14:03;4.50;99.90
70368;DHT22;57789;53.868;10.728;2022-12-28T05:16:29;4.40;99.90
70368;DHT22;57789;53.868;10.728;2022-12-28T05:18:56;4.40;99.90
70368;DHT22;57789;53.868;10.728;2022-12-28T05:21:24;4.40;99.90
70368;DHT22;57789;53.868;10.728;2022-12-28T05:23:51;4.40;99.90
70368;DHT22;57789;53.868;10.728;2022-12-28T05:26:19;4.50;99.90
70368;DHT22;57789;53.868;10.728;2022-12-28T05:28:45;4.40;99.90
70368;DHT22;57789;53.868;10.728;2022-12-28T05:31:16;4.40;99.90
70368;DHT22;57789;53.868;10.728;2022-12-28T05:33:46;4.50;99.90
70368;DHT22;57789;53.868;10.728;2022-12-28T05:36:14;4.40;99.90
70368;DHT22;57789;53.868;10.728;2022-12-28T05:38:40;4.40;99.90
70368;DHT22;57789;53.868;10.728;2022-12-28T05:41:15;4.40;99.90
70368;DHT22;57789;53.868;10.728;2022-12-28T05:43:42;4.40;99.90
70368;DHT22;57789;53.868;10.728;2022-12-28T05:46:13;4.40;99.90
70368;DHT22;57789;53.868;10.728;2022-12-28T05:48:40;4.40;99.90
70368;DHT22;57789;53.868;10.728;2022-12-28T05:51:08;4.40;99.90
70368;DHT22;57789;53.868;10.728;2022-12-28T05:53:35;4.40;99.90
70368;DHT22;57789;53.868;10.728;2022-12-28T05:56:20;4.40;99.90
70368;DHT22;57789;53.868;10.728;2022-12-28T05:58:51;4.40;99.90
70368;DHT22;57789;53.868;10.728;2022-12-28T06:01:19;4.40;99.90
70368;DHT22;57789;53.868;10.728;2022-12-28T06:03:52;4.40;99.90
70368;DHT22;57789;53.868;10.728;2022-12-28T06:06:19;4.50;99.90
70368;DHT22;57789;53.868;10.728;2022-12-28T06:08:46;4.50;99.90
70368;DHT22;57789;53.868;10.728;2022-12-28T06:11:17;4.50;99.90
70368;DHT22;57789;53.868;10.728;2022-12-28T06:13:46;4.50;99.90
70368;DHT22;57789;53.868;10.728;2022-12-28T06:16:14;4.50;99.90
70368;DHT22;57789;53.868;10.728;2022-12-28T06:18:40;4.50;99.90
70368;DHT22;57789;53.868;10.728;2022-12-28T06:24:10;4.50;99.90
70368;DHT22;57789;53.868;10.728;2022-12-28T06:26:37;4.50;99.90
70368;DHT22;57789;53.868;10.728;2022-12-28T06:29:04;4.50;99.90
70368;DHT22;57789;53.868;10.728;2022-12-28T06:31:32;4.50;99.90
70368;DHT22;57789;53.868;10.728;2022-12-28T06:34:04;4.50;99.90
70368;DHT22;57789;53.868;10.728;2022-12-28T06:36:33;4.50;99.90
70368;DHT22;57789;53.868;10.728;2022-12-28T06:39:10;4.50;99.90
70368;DHT22;57789;53.868;10.728;2022-12-28T06:41:37;4.50;99.90
70368;DHT22;57789;53.868;10.728;2022-12-28T06:44:07;4.50;99.90
70368;DHT22;57789;53.868;10.728;2022-12-28T06:46:33;4.60;99.90
70368;DHT22;57789;53.868;10.728;2022-12-28T06:48:59;4.60;99.90
70368;DHT22;57789;53.868;10.728;2022-12-28T06:51:30;4.60;99.90
70368;DHT22;57789;53.868;10.728;2022-12-28T06:53:56;4.60;99.90
70368;DHT22;57789;53.868;10.728;2022-12-28T06:56:30;4.60;99.90
70368;DHT22;57789;53.868;10.728;2022-12-28T06:58:56;4.60;99.90
70368;DHT22;57789;53.868;10.728;2022-12-28T07:01:28;4.70;99.90
70368;DHT22;57789;53.868;10.728;2022-12-28T07:03:55;4.70;99.90
70368;DHT22;57789;53.868;10.728;2022-12-28T07:06:26;4.70;99.90
70368;DHT22;57789;53.868;10.728;2022-12-28T07:09:06;4.70;99.90
70368;DHT22;57789;53.868;10.728;2022-12-28T07:11:32;4.80;99.90
70368;DHT22;57789;53.868;10.728;2022-12-28T07:14:01;4.80;99.90
70368;DHT22;57789;53.868;10.728;2022-12-28T07:16:30;4.80;99.90
70368;DHT22;57789;53.868;10.728;2022-12-28T07:19:13;4.80;99.90
70368;DHT22;57789;53.868;10.728;2022-12-28T07:21:39;4.90;99.90
70368;DHT22;57789;53.868;10.728;2022-12-28T07:24:07;4.90;99.90
70368;DHT22;57789;53.868;10.728;2022-12-28T07:26:36;4.90;99.90
70368;DHT22;57789;53.868;10.728;2022-12-28T07:29:05;4.90;99.90
70368;DHT22;57789;53.868;10.728;2022-12-28T07:31:39;4.90;99.90
70368;DHT22;57789;53.868;10.728;2022-12-28T07:34:04;4.90;99.90
70368;DHT22;57789;53.868;10.728;2022-12-28T07:36:31;4.90;99.90
70368;DHT22;57789;53.868;10.728;2022-12-28T07:38:58;4.90;99.90
70368;DHT22;57789;53.868;10.728;2022-12-28T07:41:29;4.90;99.90
70368;DHT22;57789;53.868;10.728;2022-12-28T07:44:01;5.00;99.90
70368;DHT22;57789;53.868;10.728;2022-12-28T07:46:31;5.00;99.90
70368;DHT22;57789;53.868;10.728;2022-12-28T07:48:57;5.10;99.90
70368;DHT22;57789;53.868;10.728;2022-12-28T07:51:29;5.10;99.90
70368;DHT22;57789;53.868;10.728;2022-12-28T07:53:57;5.10;99.90
70368;DHT22;57789;53.868;10.728;2022-12-28T07:56:24;5.10;99.90
70368;DHT22;57789;53.868;10.728;2022-12-28T07:58:55;5.10;99.90
70368;DHT22;57789;53.868;10.728;2022-12-28T08:01:24;5.10;99.90
70368;DHT22;57789;53.868;10.728;2022-12-28T08:03:55;5.10;99.90
70368;DHT22;57789;53.868;10.728;2022-12-28T08:06:21;5.10;99.90
70368;DHT22;57789;53.868;10.728;2022-12-28T08:08:50;5.20;99.90
70368;DHT22;57789;53.868;10.728;2022-12-28T08:11:22;5.20;99.90
70368;DHT22;57789;53.868;10.728;2022-12-28T08:13:53;5.20;99.90
70368;DHT22;57789;53.868;10.728;2022-12-28T08:16:21;5.20;99.90
70368;DHT22;57789;53.868;10.728;2022-12-28T08:18:48;5.20;99.90
70368;DHT22;57789;53.868;10.728;2022-12-28T08:21:18;5.30;99.90
70368;DHT22;57789;53.868;10.728;2022-12-28T08:23:46;5.30;99.90
70368;DHT22;57789;53.868;10.728;2022-12-28T08:26:14;5.30;99.90
70368;DHT22;57789;53.868;10.728;2022-12-28T08:28:43;5.40;99.90
70368;DHT22;57789;53.868;10.728;2022-12-28T08:31:15;5.40;99.90
70368;DHT22;57789;53.868;10.728;2022-12-28T08:33:41;5.40;99.90
70368;DHT22;57789;53.868;10.728;2022-12-28T08:36:07;5.50;99.90
70368;DHT22;57789;53.868;10.728;2022-12-28T08:38:36;5.50;99.90
70368;DHT22;57789;53.868;10.728;2022-12-28T08:41:03;5.50;99.90
70368;DHT22;57789;53.868;10.728;2022-12-28T08:43:30;5.60;99.90
70368;DHT22;57789;53.868;10.728;2022-12-28T08:46:01;5.60;99.90
70368;DHT22;57789;53.868;10.728;2022-12-28T08:48:28;5.70;99.90
70368;DHT22;57789;53.868;10.728;2022-12-28T08:50:54;5.70;99.90
70368;DHT22;57789;53.868;10.728;2022-12-28T08:53:24;5.70;99.90
70368;DHT22;57789;53.868;10.728;2022-12-28T08:55:50;5.70;99.90
70368;DHT22;57789;53.868;10.728;2022-12-28T08:58:16;5.80;99.90
70368;DHT22;57789;53.868;10.728;2022-12-28T09:00:42;5.80;99.90
70368;DHT22;57789;53.868;10.728;2022-12-28T09:03:08;5.80;99.90
70368;DHT22;57789;53.868;10.728;2022-12-28T09:05:38;5.90;99.90
70368;DHT22;57789;53.868;10.728;2022-12-28T09:08:04;5.90;99.90
70368;DHT22;57789;53.868;10.728;2022-12-28T09:10:30;5.90;99.90
70368;DHT22;57789;53.868;10.728;2022-12-28T09:12:56;5.90;99.90
70368;DHT22;57789;53.868;10.728;2022-12-28T09:15:21;6.00;99.90
70368;DHT22;57789;53.868;10.728;2022-12-28T09:17:47;6.00;99.90
70368;DHT22;57789;53.868;10.728;2022-12-28T09:20:13;6.00;99.90
70368;DHT22;57789;53.868;10.728;2022-12-28T09:22:39;6.10;99.90
70368;DHT22;57789;53.868;10.728;2022-12-28T09:25:06;6.10;99.90
70368;DHT22;57789;53.868;10.728;2022-12-28T09:27:36;6.20;99.90
70368;DHT22;57789;53.868;10.728;2022-12-28T09:30:02;6.20;99.90
70368;DHT22;57789;53.868;10.728;2022-12-28T09:32:28;6.20;99.90
70368;DHT22;57789;53.868;10.728;2022-12-28T09:34:53;6.30;99.90
70368;DHT22;57789;53.868;10.728;2022-12-28T09:37:19;6.40;99.90
70368;DHT22;57789;53.868;10.728;2022-12-28T09:39:45;6.40;99.90
70368;DHT22;57789;53.868;10.728;2022-12-28T09:44:51;6.50;99.90
70368;DHT22;57789;53.868;10.728;2022-12-28T09:47:43;6.50;99.90
70368;DHT22;57789;53.868;10.728;2022-12-28T09:55:33;6.70;99.90
70368;DHT22;57789;53.868;10.728;2022-12-28T09:58:00;6.70;99.90
70368;DHT22;57789;53.868;10.728;2022-12-28T10:00:41;6.70;99.90
70368;DHT22;57789;53.868;10.728;2022-12-28T10:03:34;6.80;99.90
70368;DHT22;57789;53.868;10.728;2022-12-28T10:06:01;6.80;99.90
70368;DHT22;57789;53.868;10.728;2022-12-28T10:08:28;6.80;99.90
70368;DHT22;57789;53.868;10.728;2022-12-28T10:11:00;6.90;99.90
70368;DHT22;57789;53.868;10.728;2022-12-28T10:13:32;6.90;99.90
70368;DHT22;57789;53.868;10.728;2022-12-28T10:16:04;7.00;99.90
70368;DHT22;57789;53.868;10.728;2022-12-28T10:18:30;7.00;99.90
70368;DHT22;57789;53.868;10.728;2022-12-28T10:20:58;7.10;99.90
70368;DHT22;57789;53.868;10.728;2022-12-28T10:23:26;7.10;99.90
70368;DHT22;57789;53.868;10.728;2022-12-28T10:25:54;7.20;99.90
70368;DHT22;57789;53.868;10.728;2022-12-28T10:28:24;7.20;99.90
70368;DHT22;57789;53.868;10.728;2022-12-28T10:31:11;7.20;99.90
70368;DHT22;57789;53.868;10.728;2022-12-28T10:33:39;7.30;99.90
70368;DHT22;57789;53.868;10.728;2022-12-28T10:36:13;7.30;99.90
70368;DHT22;57789;53.868;10.728;2022-12-28T10:38:42;7.40;99.90
70368;DHT22;57789;53.868;10.728;2022-12-28T10:41:13;7.40;99.90
70368;DHT22;57789;53.868;10.728;2022-12-28T10:43:42;7.50;99.90
70368;DHT22;57789;53.868;10.728;2022-12-28T10:46:35;7.50;99.90
70368;DHT22;57789;53.868;10.728;2022-12-28T10:49:01;7.60;99.90
70368;DHT22;57789;53.868;10.728;2022-12-28T10:51:29;7.60;99.90
70368;DHT22;57789;53.868;10.728;2022-12-28T10:53:56;7.60;99.90
70368;DHT22;57789;53.868;10.728;2022-12-28T10:56:47;7.60;99.90
70368;DHT22;57789;53.868;10.728;2022-12-28T10:59:26;7.70;99.90
70368;DHT22;57789;53.868;10.728;2022-12-28T11:01:54;7.70;99.90
70368;DHT22;57789;53.868;10.728;2022-12-28T11:04:27;7.70;99.90
70368;DHT22;57789;53.868;10.728;2022-12-28T11:06:56;7.80;99.90
70368;DHT22;57789;53.868;10.728;2022-12-28T11:09:33;7.80;99.90
70368;DHT22;57789;53.868;10.728;2022-12-28T11:14:47;7.90;99.90
70368;DHT22;57789;53.868;10.728;2022-12-28T11:17:23;7.90;99.90
70368;DHT22;57789;53.868;10.728;2022-12-28T11:19:56;7.90;99.90
70368;DHT22;57789;53.868;10.728;2022-12-28T11:22:26;7.80;99.90
70368;DHT22;57789;53.868;10.728;2022-12-28T11:24:59;7.90;99.90
70368;DHT22;57789;53.868;10.728;2022-12-28T11:27:27;7.90;99.90
70368;DHT22;57789;53.868;10.728;2022-12-28T11:29:54;7.90;99.90
70368;DHT22;57789;53.868;10.728;2022-12-28T11:32:31;7.90;99.90
70368;DHT22;57789;53.868;10.728;2022-12-28T11:35:04;7.90;99.90
70368;DHT22;57789;53.868;10.728;2022-12-28T11:37:30;8.00;99.90
70368;DHT22;57789;53.868;10.728;2022-12-28T11:39:56;8.10;99.90
70368;DHT22;57789;53.868;10.728;2022-12-28T11:45:02;8.20;99.90
70368;DHT22;57789;53.868;10.728;2022-12-28T11:47:32;8.20;99.90
70368;DHT22;57789;53.868;10.728;2022-12-28T11:52:59;8.30;99.90
70368;DHT22;57789;53.868;10.728;2022-12-28T11:57:53;8.30;99.90
70368;DHT22;57789;53.868;10.728;2022-12-28T12:02:59;8.30;99.90
70368;DHT22;57789;53.868;10.728;2022-12-28T12:10:45;8.30;99.90
70368;DHT22;57789;53.868;10.728;2022-12-28T12:16:13;8.30;99.90
70368;DHT22;57789;53.868;10.728;2022-12-28T12:18:51;8.30;99.90
70368;DHT22;57789;53.868;10.728;2022-12-28T12:21:38;8.40;99.90
70368;DHT22;57789;53.868;10.728;2022-12-28T12:24:24;8.40;99.90
70368;DHT22;57789;53.868;10.728;2022-12-28T12:27:01;8.40;99.90
70368;DHT22;57789;53.868;10.728;2022-12-28T12:29:36;8.40;99.90
70368;DHT22;57789;53.868;10.728;2022-12-28T12:32:23;8.50;99.90
70368;DHT22;57789;53.868;10.728;2022-12-28T13:05:21;8.40;99.90
70368;DHT22;57789;53.868;10.728;2022-12-28T13:07:49;8.40;99.90
70368;DHT22;57789;53.868;10.728;2022-12-28T13:10:31;8.40;99.90
70368;DHT22;57789;53.868;10.728;2022-12-28T13:12:59;8.40;99.90
70368;DHT22;57789;53.868;10.728;2022-12-28T13:15:26;8.40;99.90
70368;DHT22;57789;53.868;10.728;2022-12-28T13:18:13;8.40;99.90
70368;DHT22;57789;53.868;10.728;2022-12-28T13:20:48;8.40;99.90
70368;DHT22;57789;53.868;10.728;2022-12-28T13:23:16;8.40;99.90
70368;DHT22;57789;53.868;10.728;2022-12-28T13:25:46;8.40;99.90
70368;DHT22;57789;53.868;10.728;2022-12-28T13:28:25;8.40;99.90
70368;DHT22;57789;53.868;10.728;2022-12-28T13:33:29;8.40;99.90
70368;DHT22;57789;53.868;10.728;2022-12-28T13:36:25;8.40;99.90
70368;DHT22;57789;53.868;10.728;2022-12-28T13:39:12;8.40;99.90
70368;DHT22;57789;53.868;10.728;2022-12-28T13:41:50;8.40;99.90
70368;DHT22;57789;53.868;10.728;2022-12-28T13:44:22;8.40;99.90
70368;DHT22;57789;53.868;10.728;2022-12-28T13:46:58;8.40;99.90
70368;DHT22;57789;53.868;10.728;2022-12-28T13:49:26;8.40;99.90
70368;DHT22;57789;53.868;10.728;2022-12-28T13:51:55;8.40;99.90
70368;DHT22;57789;53.868;10.728;2022-12-28T13:54:23;8.40;99.90
70368;DHT22;57789;53.868;10.728;2022-12-28T13:56:51;8.40;99.90
70368;DHT22;57789;53.868;10.728;2022-12-28T13:59:24;8.50;99.90
70368;DHT22;57789;53.868;10.728;2022-12-28T14:01:51;8.50;99.90
70368;DHT22;57789;53.868;10.728;2022-12-28T14:04:29;8.50;99.90
70368;DHT22;57789;53.868;10.728;2022-12-28T14:06:56;8.50;99.90
70368;DHT22;57789;53.868;10.728;2022-12-28T14:09:27;8.50;99.90
70368;DHT22;57789;53.868;10.728;2022-12-28T14:11:53;8.50;99.90
70368;DHT22;57789;53.868;10.728;2022-12-28T14:14:24;8.50;99.90
70368;DHT22;57789;53.868;10.728;2022-12-28T14:16:51;8.50;99.90
70368;DHT22;57789;53.868;10.728;2022-12-28T14:19:19;8.50;99.90
70368;DHT22;57789;53.868;10.728;2022-12-28T14:21:47;8.50;99.90
70368;DHT22;57789;53.868;10.728;2022-12-28T14:24:15;8.50;99.90
70368;DHT22;57789;53.868;10.728;2022-12-28T14:27:00;8.50;99.90
70368;DHT22;57789;53.868;10.728;2022-12-28T14:29:31;8.50;99.90
70368;DHT22;57789;53.868;10.728;2022-12-28T14:32:00;8.50;99.90
70368;DHT22;57789;53.868;10.728;2022-12-28T14:34:35;8.50;99.90
70368;DHT22;57789;53.868;10.728;2022-12-28T14:37:03;8.50;99.90
70368;DHT22;57789;53.868;10.728;2022-12-28T14:39:35;8.50;99.90
70368;DHT22;57789;53.868;10.728;2022-12-28T14:42:05;8.50;99.90
70368;DHT22;57789;53.868;10.728;2022-12-28T14:44:38;8.50;99.90
70368;DHT22;57789;53.868;10.728;2022-12-28T14:50:20;8.50;99.90
70368;DHT22;57789;53.868;10.728;2022-12-28T14:52:48;8.50;99.90
70368;DHT22;57789;53.868;10.728;2022-12-28T14:55:31;8.50;99.90
70368;DHT22;57789;53.868;10.728;2022-12-28T14:58:20;8.50;99.90
70368;DHT22;57789;53.868;10.728;2022-12-28T15:01:05;8.50;99.90
70368;DHT22;57789;53.868;10.728;2022-12-28T15:04:36;8.50;99.90
70368;DHT22;57789;53.868;10.728;2022-12-28T15:06:42;8.50;99.90
70368;DHT22;57789;53.868;10.728;2022-12-28T15:09:08;8.50;99.90
70368;DHT22;57789;53.868;10.728;2022-12-28T15:11:39;8.50;99.90
70368;DHT22;57789;53.868;10.728;2022-12-28T15:14:20;8.50;99.90
70368;DHT22;57789;53.868;10.728;2022-12-28T15:16:50;8.50;99.90
70368;DHT22;57789;53.868;10.728;2022-12-28T15:19:17;8.50;99.90
70368;DHT22;57789;53.868;10.728;2022-12-28T15:21:42;8.50;99.90
70368;DHT22;57789;53.868;10.728;2022-12-28T15:24:12;8.50;99.90
70368;DHT22;57789;53.868;10.728;2022-12-28T15:26:41;8.50;99.90
70368;DHT22;57789;53.868;10.728;2022-12-28T15:29:10;8.50;99.90
70368;DHT22;57789;53.868;10.728;2022-12-28T15:31:36;8.50;99.90
70368;DHT22;57789;53.868;10.728;2022-12-28T15:34:05;8.40;99.90
70368;DHT22;57789;53.868;10.728;2022-12-28T15:36:34;8.40;99.90
70368;DHT22;57789;53.868;10.728;2022-12-28T15:39:00;8.40;99.90
70368;DHT22;57789;53.868;10.728;2022-12-28T15:41:27;8.50;99.90
70368;DHT22;57789;53.868;10.728;2022-12-28T15:44:18;8.40;99.90
70368;DHT22;57789;53.868;10.728;2022-12-28T15:46:46;8.40;99.90
70368;DHT22;57789;53.868;10.728;2022-12-28T15:49:17;8.40;99.90
70368;DHT22;57789;53.868;10.728;2022-12-28T15:51:43;8.40;99.90
70368;DHT22;57789;53.868;10.728;2022-12-28T15:54:10;8.40;99.90
70368;DHT22;57789;53.868;10.728;2022-12-28T15:56:40;8.40;99.90
70368;DHT22;57789;53.868;10.728;2022-12-28T15:59:11;8.40;99.90
70368;DHT22;57789;53.868;10.728;2022-12-28T16:01:38;8.30;99.90
70368;DHT22;57789;53.868;10.728;2022-12-28T16:04:04;8.40;99.90
70368;DHT22;57789;53.868;10.728;2022-12-28T16:06:31;8.40;99.90
70368;DHT22;57789;53.868;10.728;2022-12-28T16:09:06;8.40;99.90
70368;DHT22;57789;53.868;10.728;2022-12-28T16:11:34;8.40;99.90
70368;DHT22;57789;53.868;10.728;2022-12-28T16:14:03;8.40;99.90
70368;DHT22;57789;53.868;10.728;2022-12-28T16:16:51;8.40;99.90
70368;DHT22;57789;53.868;10.728;2022-12-28T16:19:22;8.40;99.90
70368;DHT22;57789;53.868;10.728;2022-12-28T16:21:51;8.40;99.90
70368;DHT22;57789;53.868;10.728;2022-12-28T16:24:20;8.40;99.90
70368;DHT22;57789;53.868;10.728;2022-12-28T16:26:47;8.50;99.90
70368;DHT22;57789;53.868;10.728;2022-12-28T16:29:13;8.40;99.90
70368;DHT22;57789;53.868;10.728;2022-12-28T16:31:42;8.40;99.90
70368;DHT22;57789;53.868;10.728;2022-12-28T16:34:16;8.40;99.90
70368;DHT22;57789;53.868;10.728;2022-12-28T16:36:45;8.40;99.90
70368;DHT22;57789;53.868;10.728;2022-12-28T16:39:14;8.40;99.90
70368;DHT22;57789;53.868;10.728;2022-12-28T16:41:46;8.40;99.90
70368;DHT22;57789;53.868;10.728;2022-12-28T16:44:16;8.40;99.90
70368;DHT22;57789;53.868;10.728;2022-12-28T16:46:47;8.40;99.90
70368;DHT22;57789;53.868;10.728;2022-12-28T16:49:15;8.40;99.90
70368;DHT22;57789;53.868;10.728;2022-12-28T16:51:48;8.50;99.90
70368;DHT22;57789;53.868;10.728;2022-12-28T16:54:26;8.40;99.90
70368;DHT22;57789;53.868;10.728;2022-12-28T16:56:59;8.50;99.90
70368;DHT22;57789;53.868;10.728;2022-12-28T16:59:27;8.50;99.90
70368;DHT22;57789;53.868;10.728;2022-12-28T17:01:56;8.40;99.90
70368;DHT22;57789;53.868;10.728;2022-12-28T17:04:25;8.40;99.90
70368;DHT22;57789;53.868;10.728;2022-12-28T17:06:53;8.40;99.90
70368;DHT22;57789;53.868;10.728;2022-12-28T17:09:21;8.40;99.90
70368;DHT22;57789;53.868;10.728;2022-12-28T17:11:48;8.40;99.90
70368;DHT22;57789;53.868;10.728;2022-12-28T17:14:18;8.40;99.90
70368;DHT22;57789;53.868;10.728;2022-12-28T17:16:44;8.40;99.90
70368;DHT22;57789;53.868;10.728;2022-12-28T17:19:10;8.40;99.90
70368;DHT22;57789;53.868;10.728;2022-12-28T17:21:36;8.40;99.90
70368;DHT22;57789;53.868;10.728;2022-12-28T17:24:05;8.40;99.90
70368;DHT22;57789;53.868;10.728;2022-12-28T17:26:31;8.40;99.90
70368;DHT22;57789;53.868;10.728;2022-12-28T17:29:00;8.40;99.90